Time;durP1;ratioP1;P1;durP2;ratioP2;P2;SDS_P1;SDS_P2;PMS_P1;PMS_P2;Temp;Humidity;BMP_temperature;BMP_pressure;BME280_temperature;BME280_humidity;BME280_pressure;Samples;Min_cycle;Max_cycle;Signal;HPM_P1;HPM_P2
2022/09/30 00:00:25;;;;;;;4.97;1.00;;;;;;;17.89;100.00;93211.56;6216580;23;20425;-86
2022/09/30 00:02:50;;;;;;;2.20;0.70;;;;;;;18.19;100.00;93221.78;6191392;23;20064;-86
2022/09/30 00:05:16;;;;;;;4.00;0.90;;;;;;;18.68;100.00;93211.84;6217959;23;20005;-86
2022/09/30 00:07:41;;;;;;;2.03;0.73;;;;;;;17.43;100.00;93217.25;6166846;23;20065;-86
2022/09/30 00:10:07;;;;;;;0.75;0.43;;;;;;;17.69;100.00;93213.34;6166331;23;20000;-86
2022/09/30 00:12:33;;;;;;;5.95;1.15;;;;;;;18.42;100.00;93219.25;6191303;23;20078;-86
2022/09/30 00:14:59;;;;;;;1.13;0.60;;;;;;;18.64;100.00;93225.81;6191406;23;20000;-86
2022/09/30 00:17:24;;;;;;;6.20;0.90;;;;;;;18.00;100.00;93225.06;6191685;23;20039;-86
2022/09/30 00:19:50;;;;;;;2.80;0.98;;;;;;;18.45;100.00;93226.53;6166624;23;20414;-86
2022/09/30 00:22:15;;;;;;;2.80;0.65;;;;;;;17.58;100.00;93229.72;6191187;23;20118;-86
2022/09/30 00:24:41;;;;;;;8.68;1.60;;;;;;;16.87;100.00;93224.81;6191175;23;20075;-86
2022/09/30 00:27:06;;;;;;;2.85;0.60;;;;;;;17.06;100.00;93223.44;6166971;23;20005;-86
2022/09/30 00:29:31;;;;;;;2.50;0.50;;;;;;;16.86;100.00;93217.19;6191113;23;20428;-86
2022/09/30 00:31:57;;;;;;;5.28;1.30;;;;;;;16.54;100.00;93220.44;6191177;23;20322;-86
2022/09/30 00:34:22;;;;;;;8.18;1.10;;;;;;;16.65;100.00;93218.88;6217540;23;20001;-86
2022/09/30 00:36:50;;;;;;;6.18;0.80;;;;;;;16.84;100.00;93216.75;6191120;23;19996;-86
2022/09/30 00:39:18;;;;;;;4.22;0.80;;;;;;;17.36;100.00;93225.75;6166306;23;20322;-86
2022/09/30 00:41:46;;;;;;;4.78;0.77;;;;;;;17.52;100.00;93231.84;6166407;23;20001;-86
2022/09/30 00:44:45;;;;;;;7.18;0.45;;;;;;;17.30;100.00;93235.06;6191037;23;19996;-85
2022/09/30 00:47:31;;;;;;;2.28;0.50;;;;;;;17.27;100.00;93241.00;6217391;23;20354;-86
2022/09/30 00:50:03;;;;;;;1.20;0.40;;;;;;;18.16;100.00;93241.78;6191207;23;20000;-86
2022/09/30 00:52:29;;;;;;;1.17;0.50;;;;;;;18.25;100.00;93238.19;6191480;23;20016;-86
2022/09/30 00:54:57;;;;;;;0.73;0.50;;;;;;;18.32;100.00;93236.47;6166351;23;20001;-86
2022/09/30 00:57:22;;;;;;;1.85;0.35;;;;;;;18.41;100.00;93241.59;6191197;23;20076;-86
2022/09/30 00:59:49;;;;;;;2.53;0.60;;;;;;;18.40;100.00;93248.00;6166510;23;20005;-86
2022/09/30 01:02:15;;;;;;;3.45;0.50;;;;;;;18.49;100.00;93242.50;6212287;23;20004;-85
2022/09/30 01:04:41;;;;;;;3.40;0.32;;;;;;;17.91;100.00;93239.25;6216164;23;20326;-87
2022/09/30 01:07:08;;;;;;;1.35;0.40;;;;;;;18.53;100.00;93240.72;6215844;23;20311;-86
2022/09/30 01:09:38;;;;;;;2.63;0.68;;;;;;;18.48;100.00;93241.72;6190880;23;20055;-86
2022/09/30 01:12:11;;;;;;;3.05;0.40;;;;;;;18.49;100.00;93237.97;6191416;23;20305;-86
2022/09/30 01:14:37;;;;;;;2.72;0.70;;;;;;;18.67;100.00;93237.59;6216209;23;20008;-86
2022/09/30 01:17:29;;;;;;;2.22;0.40;;;;;;;18.70;100.00;93241.44;6191082;23;20425;-87
2022/09/30 01:20:22;;;;;;;7.10;0.52;;;;;;;18.72;100.00;93239.19;6207283;23;20001;-86
2022/09/30 01:22:58;;;;;;;3.53;0.75;;;;;;;17.94;100.00;93240.47;6191151;23;20015;-86
2022/09/30 01:25:49;;;;;;;3.17;0.43;;;;;;;18.06;100.00;93237.75;6216166;23;20013;-87
2022/09/30 01:28:39;;;;;;;1.17;0.50;;;;;;;18.60;100.00;93248.06;6217422;23;19996;-87
2022/09/30 01:31:14;;;;;;;1.65;0.40;;;;;;;18.05;100.00;93252.13;6215650;23;20460;-87
2022/09/30 01:34:04;;;;;;;1.30;0.52;;;;;;;17.49;100.00;93258.22;6217023;23;20000;-87
2022/09/30 01:36:51;;;;;;;2.78;0.65;;;;;;;17.06;100.00;93255.97;6216253;23;20306;-87
2022/09/30 01:39:16;;;;;;;3.15;0.60;;;;;;;17.57;100.00;93259.19;6219368;23;20003;-87
2022/09/30 01:41:53;;;;;;;3.58;0.80;;;;;;;18.09;100.00;93260.16;6217780;23;20008;-87
2022/09/30 01:44:24;;;;;;;1.80;0.55;;;;;;;18.16;100.00;93265.63;6216043;23;20041;-88
2022/09/30 01:47:22;;;;;;;5.45;0.50;;;;;;;17.85;100.00;93253.09;6217024;23;20034;-87
2022/09/30 01:49:53;;;;;;;1.25;0.30;;;;;;;17.92;100.00;93261.22;6217302;23;20000;-87
2022/09/30 01:52:38;;;;;;;1.00;0.43;;;;;;;18.05;100.00;93267.25;6216528;23;19997;-87
2022/09/30 01:55:17;;;;;;;3.55;0.40;;;;;;;18.36;100.00;93263.81;6215865;23;20453;-87
2022/09/30 01:58:11;;;;;;;2.08;0.40;;;;;;;18.35;100.00;93270.25;6217129;23;20050;-87
2022/09/30 02:00:39;;;;;;;5.45;0.82;;;;;;;18.27;100.00;93270.41;6212222;23;20012;-86
2022/09/30 02:03:15;;;;;;;1.05;0.47;;;;;;;18.06;100.00;93279.38;6217496;23;20008;-86
2022/09/30 02:05:46;;;;;;;2.67;0.73;;;;;;;17.63;100.00;93273.75;6217716;23;19993;-86
2022/09/30 02:08:43;;;;;;;4.03;0.50;;;;;;;17.92;100.00;93271.81;6219050;23;20398;-87
2022/09/30 02:11:14;;;;;;;1.70;0.52;;;;;;;17.32;100.00;93267.25;6152011;23;20345;-87
2022/09/30 02:13:48;;;;;;;6.18;0.60;;;;;;;17.09;100.00;93273.84;6193101;23;20128;-86
2022/09/30 02:16:18;;;;;;;0.80;0.40;;;;;;;17.73;100.00;93275.13;6217620;23;20083;-87
2022/09/30 02:18:49;;;;;;;1.17;0.35;;;;;;;17.94;100.00;93288.16;6192753;23;20007;-86
2022/09/30 02:21:20;;;;;;;3.05;0.40;;;;;;;17.22;100.00;93287.03;6192660;23;20063;-86
2022/09/30 02:23:48;;;;;;;1.27;0.43;;;;;;;17.88;100.00;93292.94;6217494;23;20425;-87
2022/09/30 02:26:15;;;;;;;1.67;0.63;;;;;;;17.41;100.00;93288.28;6217835;23;20004;-87
2022/09/30 02:28:44;;;;;;;3.33;0.50;;;;;;;17.99;100.00;93279.94;6217800;23;19996;-86
2022/09/30 02:31:10;;;;;;;4.22;0.60;;;;;;;17.64;100.00;93285.88;6192930;23;20047;-87
2022/09/30 02:33:40;;;;;;;2.17;0.60;;;;;;;17.78;100.00;93302.16;6219177;23;20048;-87
2022/09/30 02:36:11;;;;;;;3.75;0.50;;;;;;;17.79;100.00;93297.63;6217616;23;20008;-87
2022/09/30 02:38:43;;;;;;;1.80;0.52;;;;;;;18.01;100.00;93296.28;6193282;23;20071;-87
2022/09/30 02:41:13;;;;;;;1.92;0.40;;;;;;;18.14;100.00;93297.00;6193004;23;19996;-86
2022/09/30 02:43:40;;;;;;;3.80;0.63;;;;;;;17.26;100.00;93293.19;6217299;23;20054;-87
2022/09/30 02:46:26;;;;;;;4.07;0.55;;;;;;;17.57;100.00;93294.41;6217640;23;20386;-87
2022/09/30 02:49:01;;;;;;;3.63;0.50;;;;;;;17.64;100.00;93283.97;6217502;23;20055;-87
2022/09/30 02:51:29;;;;;;;3.90;0.50;;;;;;;17.45;100.00;93291.78;6217866;23;20003;-86
2022/09/30 02:54:27;;;;;;;4.35;0.55;;;;;;;18.00;100.00;93297.38;6218696;23;20000;-87
2022/09/30 02:56:57;;;;;;;3.28;0.65;;;;;;;17.83;100.00;93303.78;6211834;23;20000;-86
2022/09/30 02:59:23;;;;;;;2.60;0.50;;;;;;;17.51;100.00;93296.53;6217552;23;20142;-87
2022/09/30 03:01:48;;;;;;;1.65;0.45;;;;;;;17.57;100.00;93302.34;6217179;23;20004;-87
2022/09/30 03:04:16;;;;;;;0.88;0.32;;;;;;;17.36;100.00;93305.19;6192978;23;20001;-86
2022/09/30 03:06:42;;;;;;;4.97;0.63;;;;;;;17.66;100.00;93305.63;6217052;23;19997;-86
2022/09/30 03:09:08;;;;;;;1.35;0.40;;;;;;;18.16;97.05;93309.94;6217129;23;20039;-87
2022/09/30 03:11:34;;;;;;;4.57;0.60;;;;;;;18.20;96.70;93313.44;6192224;23;20027;-87
2022/09/30 03:14:26;;;;;;;4.05;0.60;;;;;;;18.48;94.84;93308.03;6217285;23;20007;-87
2022/09/30 03:17:02;;;;;;;2.60;0.40;;;;;;;17.96;100.00;93312.44;6217407;23;20084;-87
2022/09/30 03:19:39;;;;;;;3.63;0.50;;;;;;;18.44;96.78;93312.50;6217150;23;20001;-87
2022/09/30 03:22:39;;;;;;;1.83;0.40;;;;;;;18.27;100.00;93315.50;6216724;23;20044;-87
2022/09/30 03:25:30;;;;;;;1.48;0.50;;;;;;;18.32;100.00;93321.31;6217165;23;20004;-86
2022/09/30 03:28:08;;;;;;;2.00;0.50;;;;;;;18.41;100.00;93326.44;6215908;23;20009;-86
2022/09/30 03:30:39;;;;;;;3.83;0.50;;;;;;;18.15;100.00;93329.59;6218142;23;20402;-86
2022/09/30 03:33:07;;;;;;;3.80;0.50;;;;;;;17.15;100.00;93323.88;6217132;23;20338;-87
2022/09/30 03:35:54;;;;;;;3.17;0.50;;;;;;;17.65;100.00;93327.94;6192315;23;20032;-87
2022/09/30 03:38:54;;;;;;;2.63;0.57;;;;;;;17.37;100.00;93320.75;6217104;23;20003;-86
2022/09/30 03:41:51;;;;;;;4.45;0.60;;;;;;;17.85;100.00;93324.63;6218112;23;20011;-86
2022/09/30 03:44:41;;;;;;;2.95;0.50;;;;;;;18.43;100.00;93324.22;6213481;23;20013;-86
2022/09/30 03:47:09;;;;;;;1.77;0.30;;;;;;;18.37;99.66;93325.59;6191905;23;20005;-87
2022/09/30 03:49:38;;;;;;;1.73;0.47;;;;;;;17.92;98.68;93322.94;6216088;23;20018;-87
2022/09/30 03:52:06;;;;;;;1.95;0.57;;;;;;;18.05;99.17;93328.97;6216872;23;20386;-86
2022/09/30 03:54:32;;;;;;;3.00;0.50;;;;;;;18.21;93.17;93336.19;6216696;23;20004;-87
2022/09/30 03:57:02;;;;;;;1.35;0.38;;;;;;;18.36;91.44;93324.81;6191995;23;20385;-87
2022/09/30 03:59:35;;;;;;;7.57;0.55;;;;;;;18.31;90.45;93337.56;6216804;23;20000;-86
2022/09/30 04:02:01;;;;;;;5.38;1.05;;;;;;;18.34;92.12;93342.94;6217780;23;20009;-87
2022/09/30 04:04:26;;;;;;;4.47;0.80;;;;;;;17.65;100.00;93335.88;6217965;23;20104;-87
2022/09/30 04:06:52;;;;;;;3.67;0.52;;;;;;;17.19;100.00;93324.72;6191824;23;20001;-87
2022/09/30 04:09:17;;;;;;;4.38;0.57;;;;;;;16.98;100.00;93330.16;6192282;23;20027;-87
2022/09/30 04:11:43;;;;;;;2.17;0.50;;;;;;;17.62;100.00;93325.94;6191719;23;20066;-87
2022/09/30 04:14:08;;;;;;;3.90;0.60;;;;;;;17.82;96.14;93320.78;6191335;23;19993;-87
2022/09/30 04:16:34;;;;;;;4.00;0.40;;;;;;;17.49;94.77;93329.72;6167003;23;19996;-87
2022/09/30 04:19:00;;;;;;;2.83;0.50;;;;;;;17.72;97.66;93345.09;6191076;23;19997;-86
2022/09/30 04:21:27;;;;;;;3.72;0.90;;;;;;;17.48;100.00;93346.72;6191189;23;20004;-87
2022/09/30 04:23:56;;;;;;;5.22;0.68;;;;;;;17.39;100.00;93344.22;6217741;23;20390;-87
2022/09/30 04:26:21;;;;;;;1.65;0.47;;;;;;;17.76;100.00;93338.81;6190481;23;20027;-87
2022/09/30 04:28:47;;;;;;;3.95;0.95;;;;;;;17.86;100.00;93334.88;6218237;23;20302;-87
2022/09/30 04:31:14;;;;;;;2.88;0.30;;;;;;;17.92;98.70;93328.22;6191640;23;20000;-87
2022/09/30 04:33:39;;;;;;;4.80;0.60;;;;;;;17.64;98.06;93326.34;6166306;23;20433;-86
2022/09/30 04:36:06;;;;;;;4.85;0.40;;;;;;;17.00;100.00;93336.69;6191112;23;20001;-87
2022/09/30 04:38:32;;;;;;;3.92;0.50;;;;;;;17.66;96.88;93342.72;6191459;23;19997;-87
2022/09/30 04:41:03;;;;;;;1.17;0.40;;;;;;;17.04;100.00;93344.75;6166936;23;20011;-87
2022/09/30 04:43:29;;;;;;;4.40;0.50;;;;;;;17.20;100.00;93348.22;6167118;23;20054;-87
2022/09/30 04:45:56;;;;;;;2.40;0.47;;;;;;;17.67;91.98;93356.72;6167183;23;20399;-86
2022/09/30 04:48:21;;;;;;;3.90;0.65;;;;;;;17.88;92.55;93363.72;6191350;23;20008;-87
2022/09/30 04:50:47;;;;;;;2.70;0.50;;;;;;;18.02;90.43;93361.47;6191632;23;20000;-86
2022/09/30 04:53:15;;;;;;;1.13;0.40;;;;;;;17.97;90.60;93374.91;6166309;23;20387;-86
2022/09/30 04:55:44;;;;;;;1.10;0.38;;;;;;;17.44;90.91;93373.13;6167165;23;20126;-86
2022/09/30 04:58:11;;;;;;;3.05;0.60;;;;;;;17.26;93.57;93385.06;6191083;23;20004;-86
2022/09/30 05:00:37;;;;;;;3.97;1.20;;;;;;;17.50;92.59;93376.28;6192668;23;20050;-87
2022/09/30 05:03:03;;;;;;;2.90;0.50;;;;;;;17.87;89.19;93376.16;6216190;23;20354;-86
2022/09/30 05:05:28;;;;;;;0.93;0.50;;;;;;;17.88;90.11;93375.06;6215949;23;20072;-86
2022/09/30 05:08:02;;;;;;;2.55;0.60;;;;;;;17.44;89.97;93362.53;6217304;23;20000;-86
2022/09/30 05:10:30;;;;;;;4.07;0.43;;;;;;;17.61;81.24;93366.75;6217283;23;20003;-87
2022/09/30 05:12:57;;;;;;;2.53;0.70;;;;;;;17.88;81.47;93375.06;6191486;23;20039;-87
2022/09/30 05:15:22;;;;;;;3.08;0.60;;;;;;;17.47;82.59;93366.38;6215882;23;19997;-86
2022/09/30 05:17:48;;;;;;;5.00;0.43;;;;;;;17.34;98.92;93363.00;6215761;23;20076;-86
2022/09/30 05:20:13;;;;;;;1.50;0.50;;;;;;;17.21;86.45;93370.16;6216021;23;20063;-87
2022/09/30 05:22:39;;;;;;;6.40;0.77;;;;;;;17.80;76.42;93366.16;6217492;23;20008;-87
2022/09/30 05:25:05;;;;;;;2.65;0.70;;;;;;;17.84;80.73;93387.44;6216074;23;20022;-86
2022/09/30 05:27:30;;;;;;;4.55;0.50;;;;;;;17.52;90.44;93382.03;6217101;23;20052;-86
2022/09/30 05:29:55;;;;;;;2.33;0.47;;;;;;;17.61;81.13;93384.56;6191164;23;20000;-87
2022/09/30 05:32:21;;;;;;;4.80;0.63;;;;;;;17.98;79.28;93388.94;6215891;23;19997;-87
2022/09/30 05:34:46;;;;;;;5.28;0.80;;;;;;;17.86;76.11;93401.13;6216055;23;20412;-87
2022/09/30 05:37:12;;;;;;;2.03;0.50;;;;;;;17.44;86.74;93414.69;6215817;23;20349;-87
2022/09/30 05:39:37;;;;;;;2.13;0.40;;;;;;;17.73;83.17;93412.88;6217377;23;19997;-87
2022/09/30 05:42:03;;;;;;;2.90;0.70;;;;;;;17.72;80.57;93424.56;6216503;23;20062;-86
2022/09/30 05:44:28;;;;;;;3.47;0.70;;;;;;;17.76;81.37;93442.13;6215597;23;20078;-86
2022/09/30 05:46:54;;;;;;;6.68;0.98;;;;;;;17.77;81.50;93459.56;6214592;23;20090;-87
2022/09/30 05:49:21;;;;;;;4.07;0.82;;;;;;;18.06;74.96;93454.28;6215990;23;20003;-87
2022/09/30 05:51:47;;;;;;;1.52;0.50;;;;;;;17.81;76.22;93467.59;6191100;23;20092;-87
2022/09/30 05:54:13;;;;;;;2.22;0.50;;;;;;;17.82;78.92;93477.09;6215835;23;19997;-86
2022/09/30 05:56:48;;;;;;;;;;;;;;;;;;;;;
2022/09/30 05:59:14;;;;;;;4.32;0.50;;;;;;;17.51;78.08;93466.00;6217153;23;20023;-87
2022/09/30 06:01:39;;;;;;;5.00;0.63;;;;;;;17.41;84.44;93474.38;6215222;23;20008;-87
2022/09/30 06:04:05;;;;;;;3.75;0.60;;;;;;;17.94;83.72;93474.41;6215758;23;20050;-87
2022/09/30 06:06:30;;;;;;;1.63;0.45;;;;;;;18.15;84.15;93475.38;6215494;23;19997;-87
2022/09/30 06:09:06;;;;;;;;;;;;;;;;;;;;;
2022/09/30 06:11:34;;;;;;;7.32;0.55;;;;;;;17.97;82.90;93477.50;6217189;23;20075;-88
2022/09/30 06:13:59;;;;;;;1.80;0.73;;;;;;;18.51;79.07;93474.47;6216549;23;20007;-86
2022/09/30 06:16:27;;;;;;;3.60;0.60;;;;;;;18.30;81.76;93468.56;6215703;23;20071;-87
2022/09/30 06:19:05;;;;;;;;;;;;;;;;;;;;;
2022/09/30 06:21:30;;;;;;;5.20;0.65;;;;;;;18.17;76.97;93497.03;6215855;23;20088;-87
2022/09/30 06:23:56;;;;;;;0.30;0.30;;;;;;;18.55;75.02;93493.09;6215744;23;19997;-87
2022/09/30 06:26:24;;;;;;;2.15;0.68;;;;;;;18.73;73.28;93495.47;6216817;23;20004;-87
2022/09/30 06:28:50;;;;;;;8.35;0.60;;;;;;;17.92;75.66;93489.84;6216954;23;20015;-87
2022/09/30 06:31:18;;;;;;;5.00;0.57;;;;;;;17.65;84.47;93491.34;6215727;23;20000;-87
2022/09/30 06:33:51;;;;;;;2.60;0.40;;;;;;;18.46;78.25;93487.94;6217111;23;20023;-87
2022/09/30 06:36:17;;;;;;;1.23;0.40;;;;;;;18.64;77.43;93498.25;6217191;23;20000;-87
2022/09/30 06:38:42;;;;;;;3.25;0.40;;;;;;;18.58;80.89;93510.22;6215577;23;20107;-87
2022/09/30 06:41:08;;;;;;;2.60;0.40;;;;;;;18.82;80.77;93516.53;6215333;23;20005;-87
2022/09/30 06:43:34;;;;;;;4.20;0.47;;;;;;;18.86;81.36;93512.06;6215565;23;19997;-86
2022/09/30 06:46:00;;;;;;;0.85;0.30;;;;;;;18.62;77.17;93508.44;6215362;23;19997;-87
2022/09/30 06:48:28;;;;;;;7.00;0.52;;;;;;;18.22;78.15;93507.38;6216923;23;20000;-87
2022/09/30 06:50:56;;;;;;;6.53;0.43;;;;;;;18.23;78.18;93509.72;6217517;23;20051;-87
2022/09/30 06:53:22;;;;;;;6.07;0.43;;;;;;;18.54;85.23;93509.38;6217580;23;20387;-86
2022/09/30 06:55:47;;;;;;;1.52;0.28;;;;;;;18.59;89.19;93511.75;6216219;23;20074;-86
2022/09/30 06:58:14;;;;;;;1.45;0.38;;;;;;;18.96;82.49;93508.94;6217360;23;20002;-87
2022/09/30 07:00:40;;;;;;;1.85;0.40;;;;;;;18.87;73.82;93522.34;6192021;23;20067;-87
2022/09/30 07:03:08;;;;;;;3.35;0.45;;;;;;;19.24;75.05;93518.72;6217402;23;20004;-86
2022/09/30 07:05:35;;;;;;;8.48;0.68;;;;;;;19.34;77.63;93533.38;6192832;23;20465;-86
2022/09/30 07:08:01;;;;;;;2.38;0.55;;;;;;;19.26;89.77;93544.91;6217471;23;20007;-87
2022/09/30 07:10:29;;;;;;;1.10;0.50;;;;;;;19.37;89.01;93545.97;6192265;23;20000;-86
2022/09/30 07:12:54;;;;;;;1.65;0.28;;;;;;;19.44;88.48;93550.66;6193114;23;20003;-87
2022/09/30 07:15:22;;;;;;;4.75;0.52;;;;;;;18.62;90.71;93553.53;6217397;23;20032;-87
2022/09/30 07:17:55;;;;;;;3.38;0.60;;;;;;;18.96;88.23;93554.03;6216994;23;20031;-87
2022/09/30 07:20:20;;;;;;;;;;;;;;;19.18;82.75;93566.00;6193438;23;20061;-87
2022/09/30 07:22:53;;;;;;;2.20;0.40;;;;;;;19.34;78.55;93555.38;6192384;23;19936;-87
2022/09/30 07:25:19;;;;;;;0.80;0.40;;;;;;;18.77;80.59;93550.13;6194345;23;20004;-87
2022/09/30 07:27:45;;;;;;;1.75;0.47;;;;;;;18.85;83.58;93553.00;6218743;23;19997;-87
2022/09/30 07:30:11;;;;;;;2.88;0.50;;;;;;;19.14;78.62;93567.03;6217059;23;19996;-87
2022/09/30 07:32:36;;;;;;;1.10;0.40;;;;;;;19.20;75.71;93568.31;6218726;23;20043;-87
2022/09/30 07:35:02;;;;;;;2.10;0.63;;;;;;;18.56;79.81;93570.81;6217228;23;19996;-87
2022/09/30 07:37:29;;;;;;;3.10;0.50;;;;;;;19.20;78.57;93568.31;6218618;23;20000;-87
2022/09/30 07:39:54;;;;;;;9.38;0.80;;;;;;;19.00;78.52;93581.47;6216592;23;20032;-88
2022/09/30 07:42:22;;;;;;;2.60;0.50;;;;;;;19.34;77.79;93589.91;6218455;23;20361;-89
2022/09/30 07:44:50;;;;;;;0.77;0.50;;;;;;;19.61;76.96;93595.47;6217071;23;20003;-90
2022/09/30 07:47:16;;;;;;;3.28;0.40;;;;;;;20.16;76.22;93602.06;6216982;23;20027;-89
2022/09/30 07:49:42;;;;;;;1.05;0.40;;;;;;;20.43;78.16;93604.88;6216818;23;20001;-88
2022/09/30 07:52:10;;;;;;;2.40;0.52;;;;;;;19.60;79.92;93590.53;6192080;23;20005;-88
2022/09/30 07:54:35;;;;;;;2.35;0.55;;;;;;;19.90;79.27;93595.38;6217033;23;20003;-89
2022/09/30 07:57:05;;;;;;;3.20;0.50;;;;;;;19.89;96.28;93599.91;6216957;23;20020;-89
2022/09/30 07:59:32;;;;;;;2.67;0.60;;;;;;;19.92;89.09;93601.91;6192096;23;20003;-88
2022/09/30 08:01:58;;;;;;;1.80;0.47;;;;;;;18.57;99.47;93589.00;6216289;23;20103;-89
2022/09/30 08:04:24;;;;;;;1.92;0.60;;;;;;;19.11;90.71;93591.59;6216825;23;20001;-89
2022/09/30 08:06:52;;;;;;;3.42;0.75;;;;;;;20.17;80.86;93601.69;6191673;23;20005;-89
2022/09/30 08:09:20;;;;;;;3.15;0.70;;;;;;;20.49;86.44;93616.81;6216729;23;19997;-88
2022/09/30 08:11:46;;;;;;;0.30;0.20;;;;;;;20.61;88.46;93615.91;6216449;23;19999;-89
2022/09/30 08:14:24;;;;;;;2.47;0.50;;;;;;;20.25;89.95;93609.84;6216986;23;20079;-88
2022/09/30 08:16:50;;;;;;;3.78;0.60;;;;;;;19.14;94.48;93612.91;6218515;23;20314;-87
2022/09/30 08:19:18;;;;;;;2.72;0.52;;;;;;;19.43;94.51;93615.53;6216635;23;19997;-87
2022/09/30 08:21:44;;;;;;;1.27;0.38;;;;;;;19.67;100.00;93624.47;6191761;23;20016;-86
2022/09/30 08:24:11;;;;;;;5.38;0.65;;;;;;;20.07;97.27;93623.50;6216381;23;19996;-86
2022/09/30 08:26:37;;;;;;;4.07;0.40;;;;;;;19.95;97.96;93631.59;6216319;23;19997;-87
2022/09/30 08:29:03;;;;;;;1.95;0.30;;;;;;;19.55;97.96;93634.06;6216477;23;19992;-87
2022/09/30 08:31:28;;;;;;;2.83;0.32;;;;;;;19.10;99.67;93641.25;6216656;23;19997;-87
2022/09/30 08:33:57;;;;;;;1.65;0.43;;;;;;;18.72;95.31;93639.81;6216661;23;19996;-87
2022/09/30 08:36:26;;;;;;;3.05;0.57;;;;;;;19.10;92.70;93640.50;6218109;23;20374;-88
2022/09/30 08:38:53;;;;;;;2.13;0.70;;;;;;;19.34;100.00;93635.03;6216467;23;20051;-88
2022/09/30 08:41:33;;;;;;;5.13;0.82;;;;;;;20.07;95.91;93642.09;6217905;23;20046;-89
2022/09/30 08:44:14;;;;;;;4.32;0.93;;;;;;;19.61;93.79;93643.31;6216323;23;20000;-89
2022/09/30 08:46:49;;;;;;;2.70;1.17;;;;;;;20.89;84.79;93639.69;6217634;23;20076;-89
2022/09/30 08:49:35;;;;;;;2.88;0.90;;;;;;;20.75;79.50;93650.78;6217495;23;20000;-88
2022/09/30 08:52:02;;;;;;;2.95;0.63;;;;;;;21.02;75.57;93656.28;6191922;23;20019;-86
2022/09/30 08:54:31;;;;;;;4.40;0.88;;;;;;;21.26;76.79;93659.00;6216007;23;20380;-87
2022/09/30 08:56:58;;;;;;;3.10;0.82;;;;;;;20.51;82.93;93661.66;6191638;23;20074;-87
2022/09/30 08:59:25;;;;;;;2.40;0.60;;;;;;;21.24;77.73;93667.34;6216250;23;20000;-87
2022/09/30 09:02:00;;;;;;;3.70;0.70;;;;;;;21.16;76.34;93655.78;6215644;23;20012;-88
2022/09/30 09:04:27;;;;;;;4.30;0.77;;;;;;;20.17;84.23;93657.53;6192182;23;20314;-89
2022/09/30 09:07:18;;;;;;;4.22;0.50;;;;;;;20.85;80.01;93649.47;6216339;23;20314;-88
2022/09/30 09:10:24;;;;;;;3.58;0.70;;;;;;;21.98;74.40;93652.22;6216438;23;20054;-89
2022/09/30 09:13:19;;;;;;;1.15;0.50;;;;;;;22.43;69.67;93649.84;6216046;23;20011;-88
2022/09/30 09:15:53;;;;;;;2.55;0.60;;;;;;;21.96;73.81;93648.41;6216509;23;19997;-89
2022/09/30 09:18:18;;;;;;;1.95;0.55;;;;;;;22.53;70.33;93650.38;6191422;23;20001;-89
2022/09/30 09:21:16;;;;;;;1.13;0.52;;;;;;;21.88;75.36;93647.53;6215998;23;20023;-89
2022/09/30 09:23:41;;;;;;;3.30;0.82;;;;;;;22.26;75.01;93637.78;6216187;23;20357;-88
2022/09/30 09:26:10;;;;;;;1.67;0.63;;;;;;;22.22;80.86;93652.19;6216371;23;20004;-88
2022/09/30 09:28:44;;;;;;;1.60;0.43;;;;;;;22.42;77.85;93648.31;6216081;23;20391;-89
2022/09/30 09:31:17;;;;;;;1.55;0.38;;;;;;;22.81;74.93;93651.84;6191287;23;20318;-89
2022/09/30 09:33:43;;;;;;;4.53;0.82;;;;;;;21.77;81.12;93650.00;6217990;23;20001;-89
2022/09/30 09:36:24;;;;;;;3.50;0.55;;;;;;;22.44;74.74;93654.06;6216071;23;20386;-88
2022/09/30 09:39:17;;;;;;;3.03;0.70;;;;;;;22.21;75.52;93664.78;6216375;23;20023;-90
2022/09/30 09:41:55;;;;;;;0.75;0.45;;;;;;;22.07;80.86;93670.66;6217147;23;20001;-89
2022/09/30 09:44:47;;;;;;;4.72;0.70;;;;;;;22.26;76.34;93659.13;6216770;23;20007;-88
2022/09/30 09:47:15;;;;;;;4.60;0.82;;;;;;;22.11;76.00;93658.16;6159101;23;20113;-88
2022/09/30 09:49:46;;;;;;;6.13;1.05;;;;;;;21.43;82.38;93658.53;6191410;23;20027;-87
2022/09/30 09:52:11;;;;;;;5.57;0.85;;;;;;;21.39;86.46;93660.38;6191126;23;19996;-88
2022/09/30 09:54:40;;;;;;;4.55;0.82;;;;;;;21.55;86.44;93670.94;6215869;23;20011;-89
2022/09/30 09:57:09;;;;;;;2.03;0.63;;;;;;;21.39;90.05;93673.69;6190786;23;20075;-89
2022/09/30 09:59:38;;;;;;;2.38;0.50;;;;;;;21.21;90.87;93668.03;6215881;23;20035;-88
2022/09/30 10:02:25;;;;;;;2.30;0.60;;;;;;;20.13;100.00;93675.31;6216061;23;20377;-88
2022/09/30 10:04:58;;;;;;;1.67;0.50;;;;;;;21.24;95.80;93686.00;6217062;23;20050;-88
2022/09/30 10:07:25;;;;;;;4.63;0.60;;;;;;;21.75;89.27;93684.25;6216494;23;20291;-88
2022/09/30 10:10:06;;;;;;;2.47;1.00;;;;;;;20.62;97.99;93684.75;6216914;23;20000;-88
2022/09/30 10:12:31;;;;;;;1.52;0.50;;;;;;;20.86;94.90;93685.63;6215924;23;19993;-88
2022/09/30 10:15:00;;;;;;;2.20;0.60;;;;;;;21.49;96.78;93688.34;6215752;23;20016;-87
2022/09/30 10:17:33;;;;;;;2.92;0.77;;;;;;;21.40;92.79;93682.47;6216207;23;20087;-87
2022/09/30 10:20:16;;;;;;;1.45;0.50;;;;;;;21.70;91.66;93677.31;6215154;23;20000;-87
2022/09/30 10:22:42;;;;;;;1.73;0.50;;;;;;;21.21;97.04;93686.69;6191467;23;20004;-87
2022/09/30 10:25:16;;;;;;;3.35;0.68;;;;;;;21.26;98.79;93681.09;6192890;23;20015;-88
2022/09/30 10:27:50;;;;;;;3.30;0.70;;;;;;;21.73;95.65;93681.94;6217527;23;20001;-88
2022/09/30 10:30:36;;;;;;;2.20;0.70;;;;;;;22.49;87.00;93685.03;6217289;23;20000;-88
2022/09/30 10:33:03;;;;;;;1.88;0.65;;;;;;;21.35;97.02;93688.06;6217618;23;19997;-87
2022/09/30 10:35:29;;;;;;;3.95;0.50;;;;;;;22.07;95.14;93691.25;6217698;23;20001;-89
2022/09/30 10:37:57;;;;;;;3.72;0.60;;;;;;;22.98;82.87;93696.72;6193216;23;20003;-88
2022/09/30 10:40:26;;;;;;;2.00;0.50;;;;;;;21.80;89.99;93694.59;6217293;23;20000;-87
2022/09/30 10:42:53;;;;;;;2.80;0.77;;;;;;;22.94;83.67;93679.88;6192622;23;20095;-88
2022/09/30 10:45:24;;;;;;;3.95;0.70;;;;;;;23.38;79.54;93678.50;6217621;23;20000;-88
2022/09/30 10:47:52;;;;;;;2.70;0.70;;;;;;;23.97;77.82;93677.13;6217534;23;20039;-88
2022/09/30 10:50:26;;;;;;;2.13;0.55;;;;;;;23.71;78.81;93673.47;6217486;23;20011;-88
2022/09/30 10:53:00;;;;;;;1.67;0.70;;;;;;;22.51;84.27;93676.66;6219061;23;20310;-88
2022/09/30 10:55:35;;;;;;;1.90;0.60;;;;;;;23.16;79.65;93690.81;6216803;23;20055;-88
2022/09/30 10:58:19;;;;;;;6.63;0.80;;;;;;;21.88;90.60;93684.84;6217932;23;20110;-87
2022/09/30 11:00:47;;;;;;;4.43;0.80;;;;;;;22.33;87.00;93692.41;6217425;23;20349;-87
2022/09/30 11:03:16;;;;;;;3.22;0.85;;;;;;;22.10;90.71;93691.31;6192194;23;20062;-87
2022/09/30 11:05:43;;;;;;;6.22;0.93;;;;;;;21.04;98.60;93683.31;6193003;23;20039;-88
2022/09/30 11:08:22;;;;;;;3.83;1.02;;;;;;;21.50;97.38;93678.47;6218060;23;20008;-88
2022/09/30 11:10:59;;;;;;;3.30;1.00;;;;;;;21.25;96.50;93681.44;6217913;23;20004;-87
2022/09/30 11:13:53;;;;;;;1.63;0.80;;;;;;;21.57;93.88;93687.34;6192733;23;20000;-87
2022/09/30 11:16:50;;;;;;;3.70;0.88;;;;;;;20.72;99.63;93694.06;6193176;23;20007;-88
2022/09/30 11:19:22;;;;;;;2.25;0.70;;;;;;;20.88;96.83;93691.41;6192934;23;20004;-87
2022/09/30 11:21:52;;;;;;;3.63;1.10;;;;;;;20.73;100.00;93700.16;6191731;23;20027;-87
2022/09/30 11:24:40;;;;;;;3.28;1.20;;;;;;;20.61;100.00;93711.69;6218680;23;20032;-87
2022/09/30 11:27:49;;;;;;;4.90;1.35;;;;;;;20.34;100.00;93711.47;6191930;23;20316;-88
2022/09/30 11:30:56;;;;;;;2.28;1.20;;;;;;;19.97;100.00;93711.78;6200959;23;20000;-88
2022/09/30 11:33:38;;;;;;;4.13;2.10;;;;;;;19.57;100.00;93706.22;6170976;23;20008;-87
2022/09/30 11:39:43;;;;;;;7.13;1.33;;;;;;;21.96;99.26;93699.06;6202370;23;20008;-87
2022/09/30 11:42:45;;;;;;;3.20;1.40;;;;;;;22.37;97.95;93695.88;6217127;23;20000;-88
2022/09/30 11:45:32;;;;;;;5.78;1.67;;;;;;;21.59;98.68;93692.31;6216152;23;20528;-88
2022/09/30 11:48:45;;;;;;;6.65;1.83;;;;;;;21.08;100.00;93685.28;6217131;23;20003;-88
2022/09/30 11:51:46;;;;;;;;;;;;;;;;;;;;;
2022/09/30 11:54:54;;;;;;;2.92;1.35;;;;;;;22.65;94.53;93703.53;6222413;23;20016;-95
2022/09/30 11:57:32;;;;;;;;;;;;;;;;;;;;;
2022/09/30 12:00:23;;;;;;;5.10;1.58;;;;;;;24.55;82.74;93707.03;6225391;23;20028;-96
2022/09/30 12:03:38;;;;;;;5.15;2.35;;;;;;;24.55;78.92;93715.81;6222085;23;20015;-95